Time;durP1;ratioP1;P1;durP2;ratioP2;P2;SDS_P1;SDS_P2;PMS_P1;PMS_P2;Temp;Humidity;BMP_temperature;BMP_pressure;BME280_temperature;BME280_humidity;BME280_pressure;Samples;Min_cycle;Max_cycle;Signal;HPM_P1;HPM_P2
2022/09/04 00:01:58;;;;;;;6.70;4.80;;;20.30;99.80;;;;;;5039335;28;20043;-39
2022/09/04 00:04:29;;;;;;;4.88;3.65;;;20.30;99.80;;;;;;5046016;28;20510;-35
2022/09/04 00:07:38;;;;;;;19.75;5.00;;;20.30;99.80;;;;;;5058911;28;20111;-38
2022/09/04 00:10:10;;;;;;;4.00;3.60;;;20.30;99.80;;;;;;5059918;28;20039;-38
2022/09/04 00:13:01;;;;;;;6.68;4.43;;;20.30;99.90;;;;;;5060859;28;20457;-36
2022/09/04 00:15:34;;;;;;;7.13;5.63;;;20.30;99.80;;;;;;5062530;28;20036;-33
2022/09/04 00:18:06;;;;;;;7.20;4.65;;;20.30;99.70;;;;;;5064457;28;20480;-33
2022/09/04 00:20:43;;;;;;;8.55;4.65;;;20.30;99.70;;;;;;5059845;28;20507;-38
2022/09/04 00:23:34;;;;;;;7.13;4.38;;;20.30;99.80;;;;;;5062670;28;20029;-45
2022/09/04 00:26:13;;;;;;;5.22;4.72;;;20.20;99.90;;;;;;5058597;28;20028;-36
2022/09/04 00:28:46;;;;;;;6.70;4.78;;;20.20;99.90;;;;;;5057971;28;20075;-40
2022/09/04 00:31:30;;;;;;;5.93;4.82;;;20.20;99.90;;;;;;5054490;28;20401;-42
2022/09/04 00:34:16;;;;;;;8.50;5.45;;;20.20;99.90;;;;;;5063899;28;20108;-48
2022/09/04 00:36:46;;;;;;;9.82;5.72;;;20.30;99.90;;;;;;5062681;28;20012;-37
2022/09/04 00:39:36;;;;;;;7.82;5.38;;;20.30;99.90;;;;;;5062915;28;20047;-33
2022/09/04 00:42:20;;;;;;;10.10;7.35;;;20.30;99.90;;;;;;5047829;28;20362;-37
2022/09/04 00:44:55;;;;;;;8.30;6.35;;;20.30;99.90;;;;;;5058079;28;20048;-32
2022/09/04 00:47:38;;;;;;;15.02;6.78;;;20.30;99.90;;;;;;5074021;28;20066;-32
2022/09/04 00:50:08;;;;;;;8.02;6.15;;;20.30;99.90;;;;;;5062387;28;20033;-31
2022/09/04 00:52:55;;;;;;;10.93;6.68;;;20.20;99.90;;;;;;5059674;28;20381;-31
2022/09/04 00:55:49;;;;;;;9.77;6.10;;;20.20;99.90;;;;;;5059791;28;20035;-35
2022/09/04 00:58:39;;;;;;;7.03;5.38;;;20.20;99.90;;;;;;5062136;28;20122;-36
2022/09/04 01:01:05;;;;;;;8.63;5.57;;;20.10;99.90;;;;;;5063842;28;20502;-33
2022/09/04 01:03:45;;;;;;;8.15;5.93;;;20.10;99.90;;;;;;5059453;28;20096;-33
2022/09/04 01:06:35;;;;;;;8.27;5.78;;;20.10;99.90;;;;;;5062659;28;20036;-34
2022/09/04 01:09:21;;;;;;;10.93;6.82;;;20.00;99.90;;;;;;5064842;28;20105;-44
2022/09/04 01:12:20;;;;;;;14.55;6.85;;;19.90;99.90;;;;;;5080096;28;20062;-36
2022/09/04 01:15:11;;;;;;;8.43;6.68;;;19.90;99.90;;;;;;5063882;28;20028;-39
2022/09/04 01:17:51;;;;;;;12.38;7.78;;;19.90;99.90;;;;;;5065313;28;20086;-38
2022/09/04 01:20:33;;;;;;;11.43;7.68;;;20.00;99.90;;;;;;5060229;28;20110;-33
2022/09/04 01:23:04;;;;;;;15.73;7.90;;;19.90;99.90;;;;;;5062299;28;20565;-38
2022/09/04 01:25:54;;;;;;;10.82;8.20;;;20.00;99.90;;;;;;5063852;28;20029;-32
2022/09/04 01:28:35;;;;;;;16.67;8.43;;;20.00;99.90;;;;;;5058642;28;20780;-35
2022/09/04 01:31:42;;;;;;;11.38;7.57;;;20.10;99.90;;;;;;5058998;28;20144;-35
2022/09/04 01:34:11;;;;;;;16.63;8.60;;;20.00;99.90;;;;;;5062253;28;20020;-35
2022/09/04 01:36:55;;;;;;;11.10;8.02;;;19.90;99.90;;;;;;5066430;28;20559;-32
2022/09/04 01:39:23;;;;;;;12.02;7.95;;;19.90;99.90;;;;;;5062821;28;20032;-36
2022/09/04 01:42:08;;;;;;;12.88;9.52;;;19.80;99.90;;;;;;5063105;28;20484;-35
2022/09/04 01:44:34;;;;;;;23.50;9.93;;;19.70;99.90;;;;;;5063557;28;20056;-34
2022/09/04 01:47:30;;;;;;;14.95;9.05;;;19.70;99.90;;;;;;5061098;28;20496;-33
2022/09/04 01:50:00;;;;;;;12.30;8.65;;;19.80;99.90;;;;;;5061319;28;20075;-34
2022/09/04 01:52:47;;;;;;;22.92;9.18;;;19.80;99.90;;;;;;5055101;28;20531;-37
2022/09/04 01:55:29;;;;;;;10.43;8.23;;;19.70;99.90;;;;;;5059753;28;20077;-61
2022/09/04 01:58:12;;;;;;;17.02;7.75;;;19.60;99.90;;;;;;5061927;28;20408;-41
2022/09/04 02:01:10;;;;;;;12.27;8.70;;;19.60;99.90;;;;;;5060775;28;20049;-41
2022/09/04 02:04:17;;;;;;;11.70;9.27;;;19.60;99.90;;;;;;5057532;28;20055;-47
2022/09/04 02:07:24;;;;;;;11.93;8.25;;;19.50;99.90;;;;;;5061048;28;20436;-41
2022/09/04 02:09:49;;;;;;;;;;;19.50;99.90;;;;;;5058399;28;20049;-39
2022/09/04 02:12:36;;;;;;;17.05;9.63;;;19.50;99.90;;;;;;5060831;28;20409;-37
2022/09/04 02:15:22;;;;;;;11.32;7.97;;;19.50;99.90;;;;;;5056218;28;20111;-41
2022/09/04 02:18:18;;;;;;;13.25;9.50;;;19.50;99.90;;;;;;5062753;28;20021;-32
2022/09/04 02:21:11;;;;;;;10.85;9.00;;;19.40;99.90;;;;;;5059678;28;20381;-44
2022/09/04 02:23:57;;;;;;;11.57;8.25;;;19.30;99.90;;;;;;5054816;28;20528;-37
2022/09/04 02:26:25;;;;;;;8.10;6.65;;;19.30;99.90;;;;;;5062064;28;20043;-32
2022/09/04 02:29:07;;;;;;;18.88;9.57;;;19.20;99.90;;;;;;5059845;28;20081;-32
2022/09/04 02:31:48;;;;;;;13.70;9.52;;;19.20;99.90;;;;;;5063197;28;20024;-37
2022/09/04 02:34:38;;;;;;;14.75;9.38;;;19.30;99.90;;;;;;5061256;28;20111;-29
2022/09/04 02:37:32;;;;;;;14.90;9.90;;;19.20;99.90;;;;;;5064878;28;20039;-37
2022/09/04 02:40:12;;;;;;;18.55;9.32;;;19.20;99.90;;;;;;5059181;28;20457;-39
2022/09/04 02:43:01;;;;;;;15.82;9.65;;;19.10;99.90;;;;;;5062115;28;20142;-39
2022/09/04 02:45:35;;;;;;;14.82;9.05;;;19.10;99.90;;;;;;5068261;28;20483;-40
2022/09/04 02:48:17;;;;;;;18.08;8.93;;;19.10;99.90;;;;;;5066816;28;20040;-39
2022/09/04 02:51:17;;;;;;;13.52;9.23;;;19.10;99.90;;;;;;5066916;28;20016;-38
2022/09/04 02:54:11;;;;;;;14.63;9.20;;;19.00;99.90;;;;;;5066350;28;20484;-42
2022/09/04 02:57:32;;;;;;;13.55;8.88;;;19.00;99.90;;;;;;5062660;28;20037;-34
2022/09/04 03:00:18;;;;;;;13.77;8.80;;;18.90;99.90;;;;;;5049096;28;20049;-35
2022/09/04 03:02:54;;;;;;;14.27;9.88;;;18.80;99.90;;;;;;5065391;28;20043;-37
2022/09/04 03:05:24;;;;;;;12.23;8.65;;;18.80;99.90;;;;;;5066885;28;20021;-37
2022/09/04 03:08:01;;;;;;;13.48;8.38;;;18.70;99.90;;;;;;5060758;28;20029;-43
2022/09/04 03:10:35;;;;;;;13.90;9.98;;;18.70;99.90;;;;;;5064690;28;20543;-36
2022/09/04 03:13:22;;;;;;;18.23;9.65;;;18.70;99.90;;;;;;5061579;28;20029;-33
2022/09/04 03:16:31;;;;;;;18.03;9.00;;;18.70;99.90;;;;;;5063978;28;20028;-35
2022/09/04 03:19:11;;;;;;;15.50;8.98;;;18.70;99.90;;;;;;5045794;28;20039;-35
2022/09/04 03:21:40;;;;;;;14.93;9.55;;;18.60;99.90;;;;;;5047960;28;20528;-31
2022/09/04 03:24:16;;;;;;;14.07;8.85;;;18.70;99.90;;;;;;5056221;28;20033;-32
2022/09/04 03:26:49;;;;;;;13.70;6.78;;;18.60;99.90;;;;;;5063745;28;20542;-34
2022/09/04 03:29:35;;;;;;;14.68;8.95;;;18.60;99.90;;;;;;5064861;28;20439;-31
2022/09/04 03:32:16;;;;;;;12.30;8.40;;;18.60;99.90;;;;;;5057384;28;20044;-33
2022/09/04 03:35:17;;;;;;;14.20;9.23;;;18.60;99.90;;;;;;5064047;28;20111;-32
2022/09/04 03:37:54;;;;;;;10.50;8.35;;;18.50;99.90;;;;;;5062106;28;20420;-37
2022/09/04 03:40:34;;;;;;;16.25;8.73;;;18.40;99.90;;;;;;5062893;28;20035;-33
2022/09/04 03:43:18;;;;;;;12.02;9.27;;;18.40;99.90;;;;;;5061345;28;20040;-40
2022/09/04 03:46:02;;;;;;;14.18;8.85;;;18.40;99.90;;;;;;5064409;28;20403;-43
2022/09/04 03:49:04;;;;;;;15.35;9.60;;;18.40;99.90;;;;;;5062620;28;20857;-39
2022/09/04 03:51:37;;;;;;;16.98;9.50;;;18.40;99.90;;;;;;5064056;28;20108;-38
2022/09/04 03:54:33;;;;;;;12.45;9.38;;;18.50;99.90;;;;;;5058403;28;20483;-39
2022/09/04 03:57:26;;;;;;;12.77;9.02;;;18.50;99.90;;;;;;5050454;28;20032;-43
2022/09/04 04:00:10;;;;;;;14.05;9.02;;;18.50;99.90;;;;;;5061139;28;20067;-39
2022/09/04 04:02:44;;;;;;;16.85;8.73;;;18.40;99.90;;;;;;5063546;28;20098;-44
2022/09/04 04:05:18;;;;;;;13.10;8.73;;;18.40;99.90;;;;;;5061568;28;20032;-50
2022/09/04 04:08:03;;;;;;;14.23;8.82;;;18.40;99.90;;;;;;5061918;28;20537;-42
2022/09/04 04:10:46;;;;;;;16.38;8.50;;;18.30;99.90;;;;;;5065902;28;20060;-32
2022/09/04 04:13:32;;;;;;;12.13;9.02;;;18.30;99.90;;;;;;5062134;28;20581;-32
2022/09/04 04:16:09;;;;;;;11.95;8.95;;;18.30;99.90;;;;;;5061849;28;20024;-34
2022/09/04 04:18:42;;;;;;;13.43;9.85;;;18.10;99.90;;;;;;5061673;28;20442;-34
2022/09/04 04:24:28;;;;;;;12.50;8.65;;;18.10;99.90;;;;;;5061960;28;20153;-30
2022/09/04 04:27:03;;;;;;;16.30;10.27;;;18.10;99.90;;;;;;5062072;28;20543;-31
2022/09/04 04:29:39;;;;;;;15.57;10.32;;;18.10;99.90;;;;;;5062295;28;20024;-31
2022/09/04 04:32:23;;;;;;;13.57;9.63;;;18.10;99.90;;;;;;5064175;28;20110;-34
2022/09/04 04:35:02;;;;;;;13.45;9.85;;;18.00;99.90;;;;;;5062728;28;20531;-31
2022/09/04 04:37:50;;;;;;;16.75;9.40;;;18.10;99.90;;;;;;5060888;28;20020;-33
2022/09/04 04:40:34;;;;;;;16.73;10.50;;;18.10;99.90;;;;;;5064388;28;20500;-38
2022/09/04 04:43:12;;;;;;;17.33;10.80;;;18.00;99.90;;;;;;5060644;28;20225;-32
2022/09/04 04:46:18;;;;;;;13.93;10.32;;;18.00;99.90;;;;;;5059107;28;20016;-33
2022/09/04 04:49:17;;;;;;;18.65;9.95;;;18.00;99.90;;;;;;5060193;28;20131;-40
2022/09/04 04:52:15;;;;;;;17.20;10.07;;;18.10;99.90;;;;;;5065736;28;20078;-38
2022/09/04 04:55:10;;;;;;;14.80;10.27;;;18.10;99.90;;;;;;5064528;28;20027;-46
2022/09/04 04:58:04;;;;;;;16.27;11.43;;;18.10;99.90;;;;;;5060855;28;20514;-39
2022/09/04 05:01:08;;;;;;;16.17;10.85;;;18.00;99.90;;;;;;5060446;28;20045;-42
2022/09/04 05:03:43;;;;;;;18.95;10.05;;;18.00;99.90;;;;;;5060693;28;20039;-33
2022/09/04 05:06:36;;;;;;;16.15;9.68;;;17.90;99.90;;;;;;5061243;28;20020;-33
2022/09/04 05:09:13;;;;;;;16.65;10.65;;;17.90;99.90;;;;;;5060885;28;20500;-30
2022/09/04 05:11:54;;;;;;;;;;;17.90;99.90;;;;;;5064828;28;20035;-41
2022/09/04 05:14:25;;;;;;;22.83;11.10;;;17.90;99.90;;;;;;5066350;28;19954;-42
2022/09/04 05:16:58;;;;;;;17.85;10.13;;;17.90;99.90;;;;;;5063283;28;20032;-40
2022/09/04 05:20:05;;;;;;;18.20;10.23;;;17.90;99.90;;;;;;5060177;28;20043;-35
2022/09/04 05:22:57;;;;;;;;;;;17.80;99.90;;;;;;5056764;28;20404;-40
2022/09/04 05:25:29;;;;;;;19.83;10.25;;;17.80;99.90;;;;;;5061497;28;19908;-42
2022/09/04 05:28:07;;;;;;;14.52;10.82;;;17.80;99.90;;;;;;5063080;28;20086;-41
2022/09/04 05:31:13;;;;;;;17.02;10.73;;;17.80;99.90;;;;;;5062239;28;20496;-39
2022/09/04 05:33:45;;;;;;;19.00;10.90;;;17.90;99.90;;;;;;5061396;28;20453;-39
2022/09/04 05:36:36;;;;;;;13.13;10.52;;;17.90;99.90;;;;;;5064384;28;20035;-40
2022/09/04 05:39:31;;;;;;;15.70;9.88;;;18.00;99.90;;;;;;5059843;28;20484;-47
2022/09/04 05:42:25;;;;;;;18.52;10.55;;;18.00;99.90;;;;;;5061491;28;20109;-39
2022/09/04 05:45:09;;;;;;;16.65;10.27;;;18.00;99.90;;;;;;5060934;28;20063;-46
2022/09/04 05:48:12;;;;;;;13.50;10.15;;;17.90;99.90;;;;;;5063224;28;20095;-38
2022/09/04 05:51:12;;;;;;;12.98;9.60;;;18.00;99.90;;;;;;5061269;28;20035;-33
2022/09/04 05:53:56;;;;;;;14.48;9.88;;;18.00;99.90;;;;;;5058412;28;20469;-32
2022/09/04 05:56:36;;;;;;;15.27;9.57;;;18.00;99.90;;;;;;5058953;28;20017;-32
2022/09/04 05:59:34;;;;;;;15.77;10.85;;;18.10;99.90;;;;;;5057828;28;20469;-40
2022/09/04 06:02:28;;;;;;;15.23;10.98;;;18.20;99.90;;;;;;5058542;28;20041;-43
2022/09/04 06:05:12;;;;;;;15.77;10.23;;;18.30;99.90;;;;;;5058965;28;20040;-43
2022/09/04 06:07:43;;;;;;;17.88;10.77;;;18.40;99.90;;;;;;5056445;28;20524;-37
2022/09/04 06:10:46;;;;;;;21.80;11.50;;;18.40;99.90;;;;;;5058284;28;20028;-39
2022/09/04 06:16:33;;;;;;;19.42;10.40;;;18.40;99.90;;;;;;5062974;28;20132;-39
2022/09/04 06:19:19;;;;;;;20.77;11.15;;;18.50;99.90;;;;;;5059704;28;20029;-42
2022/09/04 06:22:09;;;;;;;16.10;10.82;;;18.50;99.90;;;;;;5072643;28;20123;-38
2022/09/04 06:24:37;;;;;;;22.55;10.95;;;18.50;99.90;;;;;;5060264;28;20541;-34
2022/09/04 06:27:06;;;;;;;14.15;10.23;;;18.50;99.90;;;;;;5058774;28;20393;-36
2022/09/04 06:29:40;;;;;;;18.10;10.57;;;18.50;99.90;;;;;;5058001;28;20101;-35
2022/09/04 06:32:46;;;;;;;16.42;10.35;;;18.60;99.90;;;;;;5060637;28;20169;-35
2022/09/04 06:35:22;;;;;;;17.25;10.23;;;18.70;99.90;;;;;;5050744;28;20055;-38
2022/09/04 06:37:50;;;;;;;19.35;11.00;;;18.70;99.90;;;;;;5062277;28;20021;-40
2022/09/04 06:40:39;;;;;;;15.15;10.57;;;18.70;99.90;;;;;;5057639;28;20036;-37
2022/09/04 06:43:26;;;;;;;16.27;10.45;;;18.90;99.90;;;;;;5057836;28;20373;-42
2022/09/04 06:46:01;;;;;;;24.67;11.90;;;19.00;99.90;;;;;;5059753;28;20485;-39
2022/09/04 06:48:44;;;;;;;18.80;12.18;;;19.10;99.90;;;;;;5058765;28;20029;-39
2022/09/04 06:51:30;;;;;;;17.83;11.38;;;19.20;99.90;;;;;;5077579;28;20043;-36
2022/09/04 06:54:24;;;;;;;16.27;11.57;;;19.30;99.90;;;;;;5077527;28;20047;-31
2022/09/04 06:57:16;;;;;;;16.15;11.57;;;19.40;99.90;;;;;;5077605;28;20040;-36
2022/09/04 06:59:53;;;;;;;15.55;10.20;;;19.40;99.90;;;;;;5075759;28;20604;-36
2022/09/04 07:03:07;;;;;;;17.05;11.45;;;19.50;99.90;;;;;;5075675;28;20083;-35
2022/09/04 07:05:54;;;;;;;15.95;11.32;;;19.70;99.90;;;;;;5075369;28;20050;-38
2022/09/04 07:08:38;;;;;;;16.55;11.18;;;19.80;99.90;;;;;;5080542;28;20132;-39
2022/09/04 07:11:40;;;;;;;19.02;11.80;;;19.90;99.90;;;;;;5078092;28;20036;-37
2022/09/04 07:14:44;;;;;;;17.98;11.45;;;20.00;99.90;;;;;;5073332;28;20480;-47
2022/09/04 07:17:28;;;;;;;15.27;9.32;;;20.20;99.90;;;;;;5035031;28;20028;-34
2022/09/04 07:20:14;;;;;;;15.68;10.98;;;20.30;99.90;;;;;;5074081;28;20036;-34
2022/09/04 07:22:52;;;;;;;18.92;10.98;;;20.40;99.90;;;;;;5061676;28;20956;-35
2022/09/04 07:25:39;;;;;;;14.80;10.90;;;20.70;99.90;;;;;;5058801;28;20381;-36
2022/09/04 07:28:26;;;;;;;16.25;11.48;;;20.80;99.90;;;;;;5060499;28;20542;-36
2022/09/04 07:31:16;;;;;;;16.33;10.95;;;20.90;99.90;;;;;;5059876;28;20064;-35
2022/09/04 07:34:13;;;;;;;18.63;11.68;;;21.00;99.90;;;;;;5063178;28;20043;-36
2022/09/04 07:36:55;;;;;;;15.52;10.95;;;21.20;99.90;;;;;;5062086;28;20028;-35
2022/09/04 07:39:44;;;;;;;14.75;10.20;;;21.40;99.90;;;;;;5062249;28;20472;-40
2022/09/04 07:42:26;;;;;;;15.90;10.55;;;21.40;99.90;;;;;;5064071;28;20362;-38
2022/09/04 07:45:04;;;;;;;15.23;10.10;;;21.60;99.90;;;;;;5063928;28;20167;-38
2022/09/04 07:47:41;;;;;;;16.25;9.93;;;21.80;99.90;;;;;;5062680;28;20103;-36
2022/09/04 07:50:17;;;;;;;16.70;10.27;;;21.90;99.90;;;;;;5064604;28;20393;-43
2022/09/04 07:53:13;;;;;;;16.45;11.48;;;22.00;99.90;;;;;;5059649;28;20032;-34
2022/09/04 07:55:47;;;;;;;18.77;11.43;;;22.10;99.90;;;;;;5062896;28;20078;-43
2022/09/04 07:58:49;;;;;;;16.65;11.13;;;22.30;99.90;;;;;;5058318;28;20477;-52
2022/09/04 08:01:25;;;;;;;21.52;12.38;;;22.50;99.90;;;;;;5058743;28;20139;-36
2022/09/04 08:04:09;;;;;;;15.30;11.33;;;22.50;99.90;;;;;;5061005;28;20103;-36
2022/09/04 08:07:06;;;;;;;15.30;11.27;;;22.60;99.90;;;;;;5064839;28;20036;-38
2022/09/04 08:09:53;;;;;;;16.85;11.88;;;22.70;99.90;;;;;;5062400;28;20499;-36
2022/09/04 08:12:24;;;;;;;14.82;10.95;;;22.80;99.90;;;;;;5062107;28;20070;-36
2022/09/04 08:15:21;;;;;;;18.33;12.45;;;23.00;99.90;;;;;;5066037;28;20056;-35
2022/09/04 08:18:14;;;;;;;15.60;11.05;;;23.10;99.90;;;;;;5060988;28;20107;-38
2022/09/04 08:21:01;;;;;;;13.23;9.25;;;23.20;99.90;;;;;;5058310;28;20070;-35
2022/09/04 08:23:54;;;;;;;16.90;12.10;;;23.30;99.90;;;;;;5060067;28;20606;-39
2022/09/04 08:26:57;;;;;;;17.48;11.57;;;23.40;99.90;;;;;;5062026;28;20435;-36
2022/09/04 08:29:38;;;;;;;19.35;10.80;;;23.50;99.90;;;;;;5064836;28;20032;-39
2022/09/04 08:32:34;;;;;;;16.90;10.63;;;23.80;99.90;;;;;;5062652;28;20048;-32
2022/09/04 08:35:38;;;;;;;15.48;10.82;;;24.00;99.90;;;;;;5071773;28;20076;-39
2022/09/04 08:38:22;;;;;;;18.23;12.20;;;24.20;99.90;;;;;;5064043;28;20052;-36
2022/09/04 08:40:53;;;;;;;17.67;12.02;;;24.30;99.90;;;;;;5063211;28;20340;-32
2022/09/04 08:43:59;;;;;;;20.25;11.63;;;24.50;99.90;;;;;;5061643;28;20020;-36
2022/09/04 08:46:48;;;;;;;18.10;10.60;;;24.60;99.90;;;;;;5060459;28;20400;-36
2022/09/04 08:49:38;;;;;;;25.73;12.00;;;24.40;99.90;;;;;;5056297;28;20031;-39
2022/09/04 08:52:22;;;;;;;16.52;10.75;;;24.50;99.90;;;;;;5059210;28;20045;-37
2022/09/04 08:55:03;;;;;;;24.33;11.95;;;24.70;99.90;;;;;;5055942;28;20392;-36
2022/09/04 08:57:41;;;;;;;15.50;10.80;;;24.80;99.90;;;;;;5063668;28;20499;-33
2022/09/04 09:00:14;;;;;;;17.65;11.38;;;24.80;99.90;;;;;;5058134;28;20021;-41
2022/09/04 09:03:28;;;;;;;16.52;10.77;;;24.90;99.90;;;;;;5063750;28;20025;-33
2022/09/04 09:05:56;;;;;;;19.13;11.65;;;25.00;99.90;;;;;;5060746;28;20055;-38
2022/09/04 09:08:56;;;;;;;20.65;11.18;;;25.10;99.90;;;;;;5060940;28;20017;-38
2022/09/04 09:11:40;;;;;;;13.93;10.50;;;25.20;99.90;;;;;;5064035;28;20017;-35
2022/09/04 09:14:30;;;;;;;16.67;10.90;;;25.30;99.90;;;;;;5057438;28;20502;-36
2022/09/04 09:17:15;;;;;;;14.48;9.77;;;25.40;99.90;;;;;;5061273;28;20415;-39
2022/09/04 09:20:31;;;;;;;13.85;9.82;;;25.50;99.90;;;;;;5062482;28;20228;-34
2022/09/04 09:23:34;;;;;;;12.98;8.95;;;25.60;99.90;;;;;;5055692;28;20037;-31
2022/09/04 09:26:37;;;;;;;14.93;10.07;;;25.80;99.90;;;;;;5062519;28;20055;-39
2022/09/04 09:29:12;;;;;;;13.98;9.73;;;25.90;99.90;;;;;;5058868;28;20851;-38
2022/09/04 09:32:00;;;;;;;16.23;9.05;;;26.00;99.90;;;;;;5057937;28;20455;-40
2022/09/04 09:35:07;;;;;;;16.70;9.98;;;26.20;99.90;;;;;;5060595;28;20021;-30
2022/09/04 09:38:01;;;;;;;12.80;9.27;;;26.40;99.90;;;;;;5040004;28;20543;-42
2022/09/04 09:41:05;;;;;;;8.98;7.43;;;26.50;99.90;;;;;;5058419;28;20056;-34
2022/09/04 09:43:34;;;;;;;11.52;7.50;;;26.60;99.90;;;;;;5059467;28;20021;-37
2022/09/04 09:46:08;;;;;;;8.77;6.65;;;26.70;99.90;;;;;;5062649;28;20525;-39
2022/09/04 09:48:47;;;;;;;10.90;7.65;;;26.60;99.90;;;;;;5062498;28;20053;-37
2022/09/04 09:51:38;;;;;;;11.50;7.65;;;26.70;99.90;;;;;;5063457;28;20097;-38
2022/09/04 09:54:29;;;;;;;15.27;8.75;;;26.70;99.90;;;;;;5060849;28;20382;-38
2022/09/04 09:57:01;;;;;;;9.48;7.15;;;26.80;99.90;;;;;;5063438;28;20115;-40
2022/09/04 09:59:35;;;;;;;9.13;6.78;;;26.80;99.90;;;;;;5061822;28;20043;-38
2022/09/04 10:02:16;;;;;;;8.02;5.57;;;26.90;99.90;;;;;;5060836;28;20053;-40
2022/09/04 10:05:11;;;;;;;10.40;7.13;;;27.00;99.90;;;;;;5058034;28;20035;-37
2022/09/04 10:07:52;;;;;;;11.13;7.25;;;27.20;99.90;;;;;;5060080;28;20032;-38
2022/09/04 10:10:55;;;;;;;11.63;7.78;;;27.10;99.90;;;;;;5061210;28;20131;-42
2022/09/04 10:13:42;;;;;;;10.57;6.20;;;27.10;99.90;;;;;;5061827;28;20033;-40
2022/09/04 10:16:35;;;;;;;8.32;6.57;;;27.10;99.90;;;;;;5061294;28;20545;-39
2022/09/04 10:19:42;;;;;;;11.43;6.55;;;27.20;99.90;;;;;;5058728;28;20107;-38
2022/09/04 10:22:38;;;;;;;11.27;6.40;;;27.40;99.90;;;;;;5049958;28;20071;-40
2022/09/04 10:25:27;;;;;;;6.35;5.13;;;27.50;99.90;;;;;;5060425;28;20123;-42
2022/09/04 10:28:05;;;;;;;9.55;5.20;;;27.60;99.90;;;;;;5062347;28;20025;-40
2022/09/04 10:31:09;;;;;;;6.55;4.30;;;27.80;99.70;;;;;;5062731;28;20032;-40
2022/09/04 10:34:06;;;;;;;7.63;5.40;;;27.90;99.70;;;;;;5054483;28;20386;-42
2022/09/04 10:36:53;;;;;;;9.75;4.55;;;28.00;99.40;;;;;;5061935;28;20062;-39
2022/09/04 10:42:57;;;;;;;6.25;4.63;;;28.10;99.30;;;;;;5063502;28;20570;-39
2022/09/04 10:45:37;;;;;;;6.35;4.32;;;28.20;99.10;;;;;;5062617;28;20485;-41
2022/09/04 10:48:22;;;;;;;4.13;2.97;;;28.20;98.60;;;;;;5056593;28;20127;-42
2022/09/04 10:51:34;;;;;;;9.73;3.78;;;28.00;98.80;;;;;;5061334;28;20025;-36
2022/09/04 10:54:29;;;;;;;4.18;3.28;;;28.00;98.80;;;;;;5059147;28;20076;-48
2022/09/04 10:57:17;;;;;;;4.78;3.30;;;28.10;98.70;;;;;;5058938;28;20033;-37
2022/09/04 11:00:06;;;;;;;4.50;4.07;;;28.10;98.60;;;;;;5058786;28;20559;-37
2022/09/04 11:03:02;;;;;;;5.72;4.47;;;28.20;98.60;;;;;;5070846;28;20102;-40
2022/09/04 11:05:57;;;;;;;11.85;4.22;;;28.20;98.80;;;;;;5064082;28;20020;-38
2022/09/04 11:08:44;;;;;;;4.40;4.00;;;28.30;98.80;;;;;;5076357;28;20036;-42
2022/09/04 11:11:51;;;;;;;4.50;3.42;;;28.40;98.80;;;;;;5063835;28;20140;-35
2022/09/04 11:14:27;;;;;;;3.88;2.50;;;28.40;98.50;;;;;;5063512;28;20540;-39
2022/09/04 11:17:07;;;;;;;2.45;2.03;;;28.60;97.80;;;;;;5064122;28;20033;-40
2022/09/04 11:19:35;;;;;;;2.88;2.28;;;28.80;97.80;;;;;;5061771;28;20393;-42
2022/09/04 11:22:26;;;;;;;3.33;2.38;;;28.90;97.30;;;;;;5061171;28;20036;-45
2022/09/04 11:25:00;;;;;;;3.28;1.98;;;28.80;97.50;;;;;;5065806;28;20036;-38
2022/09/04 11:27:48;;;;;;;5.18;2.70;;;28.90;97.20;;;;;;5064542;28;20040;-39
2022/09/04 11:30:35;;;;;;;4.30;2.35;;;29.00;97.00;;;;;;5063230;28;20480;-54
2022/09/04 11:33:32;;;;;;;10.73;4.18;;;29.00;97.10;;;;;;5062566;28;20071;-41
2022/09/04 11:36:28;;;;;;;5.22;2.10;;;29.00;97.10;;;;;;5058053;28;20032;-39
2022/09/04 11:39:28;;;;;;;3.58;1.88;;;29.10;97.10;;;;;;5059164;28;20154;-39
2022/09/04 11:42:26;;;;;;;5.53;2.50;;;29.30;96.70;;;;;;5064594;28;20194;-42
2022/09/04 11:45:15;;;;;;;3.00;2.17;;;29.30;96.50;;;;;;5064700;28;20067;-42
2022/09/04 11:48:08;;;;;;;4.15;2.80;;;29.20;96.60;;;;;;5063542;28;20070;-39
2022/09/04 11:51:03;;;;;;;4.85;1.85;;;28.90;96.80;;;;;;5063203;28;20037;-45
2022/09/04 11:54:00;;;;;;;4.25;2.28;;;28.70;97.00;;;;;;5063109;28;20530;-40
2022/09/04 11:56:46;;;;;;;4.43;2.53;;;28.70;97.20;;;;;;5048342;28;20033;-40
2022/09/04 11:59:49;;;;;;;3.63;2.50;;;28.70;96.80;;;;;;5063835;28;20165;-41
2022/09/04 12:02:46;;;;;;;6.13;2.38;;;28.70;96.60;;;;;;5060817;28;20143;-32
2022/09/04 12:05:40;;;;;;;2.60;2.40;;;28.50;97.20;;;;;;5060779;28;20066;-32
2022/09/04 12:08:49;;;;;;;1.70;1.60;;;28.50;97.30;;;;;;5059722;28;20043;-48
2022/09/04 12:11:30;;;;;;;4.38;2.40;;;28.50;96.90;;;;;;5049099;28;20051;-38
2022/09/04 12:14:13;;;;;;;2.40;2.05;;;28.60;97.10;;;;;;5063959;28;20028;-38
2022/09/04 12:16:57;;;;;;;3.72;2.42;;;28.50;97.10;;;;;;5060457;28;20369;-34
2022/09/04 12:19:54;;;;;;;2.22;1.83;;;28.40;97.20;;;;;;5061704;28;20044;-33
2022/09/04 12:22:42;;;;;;;5.30;2.85;;;28.20;97.30;;;;;;5061191;28;20029;-31
2022/09/04 12:25:07;;;;;;;4.50;2.22;;;28.10;97.20;;;;;;5062340;28;20028;-38
2022/09/04 12:28:04;;;;;;;5.68;2.78;;;28.00;97.40;;;;;;5064179;28;20491;-38
2022/09/04 12:31:10;;;;;;;6.45;2.50;;;27.90;97.50;;;;;;5061357;28;20496;-34
2022/09/04 12:33:55;;;;;;;;;;;27.90;97.80;;;;;;5077304;28;20048;-33
2022/09/04 12:36:42;;;;;;;5.32;2.20;;;27.90;97.60;;;;;;5059422;28;19935;-36
2022/09/04 12:39:23;;;;;;;3.67;2.65;;;28.20;97.60;;;;;;5060716;28;20021;-34
2022/09/04 12:42:29;;;;;;;4.18;1.85;;;28.50;97.10;;;;;;5058381;28;20040;-30
2022/09/04 12:45:06;;;;;;;3.17;1.88;;;28.50;97.00;;;;;;5061890;28;20029;-32
2022/09/04 12:47:40;;;;;;;3.30;2.20;;;28.50;96.70;;;;;;5060684;28;20021;-35
2022/09/04 12:50:14;;;;;;;5.25;2.63;;;28.40;97.00;;;;;;5062530;28;20139;-38
2022/09/04 12:53:09;;;;;;;2.95;2.10;;;28.20;97.20;;;;;;5062248;28;20077;-32
2022/09/04 12:56:04;;;;;;;3.83;1.80;;;28.10;97.00;;;;;;5062089;28;20073;-37
2022/09/04 12:58:58;;;;;;;1.77;1.60;;;28.20;97.10;;;;;;5057653;28;21072;-38
2022/09/04 13:01:53;;;;;;;3.22;1.83;;;28.30;96.70;;;;;;5057046;28;20041;-37
2022/09/04 13:04:37;;;;;;;6.38;1.65;;;28.30;96.30;;;;;;5059929;28;20493;-39
2022/09/04 13:07:23;;;;;;;4.68;1.80;;;28.20;96.50;;;;;;5063942;28;20052;-40
2022/09/04 13:10:02;;;;;;;2.10;1.85;;;28.20;96.80;;;;;;5059748;28;20036;-37
2022/09/04 13:12:43;;;;;;;7.53;2.30;;;28.20;96.70;;;;;;5060624;28;20116;-38
2022/09/04 13:15:27;;;;;;;7.35;1.95;;;28.20;96.50;;;;;;5061134;28;20071;-39
2022/09/04 13:18:23;;;;;;;2.67;1.70;;;28.20;96.60;;;;;;5062844;28;20020;-41
2022/09/04 13:21:00;;;;;;;5.30;1.88;;;28.30;96.60;;;;;;5063064;28;20029;-38
2022/09/04 13:23:43;;;;;;;2.00;1.90;;;28.50;96.40;;;;;;5061441;28;20492;-39
2022/09/04 13:26:23;;;;;;;1.98;1.83;;;28.50;96.40;;;;;;5065990;28;20039;-37
2022/09/04 13:29:16;;;;;;;2.72;2.05;;;28.40;96.10;;;;;;5061835;28;20021;-40
2022/09/04 13:31:51;;;;;;;4.47;2.20;;;28.20;96.70;;;;;;5060245;28;21404;-39
2022/09/04 13:34:17;;;;;;;2.83;2.05;;;28.30;96.80;;;;;;5055986;28;20450;-40
2022/09/04 13:37:03;;;;;;;2.25;1.90;;;28.30;96.80;;;;;;5064992;28;20063;-39
2022/09/04 13:39:40;;;;;;;2.88;1.63;;;28.40;96.60;;;;;;5063606;28;20503;-38
2022/09/04 13:42:36;;;;;;;2.45;1.92;;;28.60;96.30;;;;;;5062330;28;20051;-37
2022/09/04 13:45:10;;;;;;;3.08;1.70;;;28.70;96.10;;;;;;5064743;28;20408;-38
2022/09/04 13:47:48;;;;;;;3.47;1.90;;;28.80;95.50;;;;;;5062105;28;20033;-56
2022/09/04 13:50:26;;;;;;;2.83;1.77;;;28.80;95.60;;;;;;5060834;28;20437;-49
2022/09/04 13:53:15;;;;;;;1.85;1.73;;;28.90;95.40;;;;;;5061551;28;20055;-31
2022/09/04 13:56:05;;;;;;;5.20;1.90;;;28.90;95.30;;;;;;5061660;28;20396;-31
2022/09/04 13:58:39;;;;;;;3.38;1.48;;;28.90;95.50;;;;;;5060930;28;20572;-38
2022/09/04 14:01:12;;;;;;;2.42;1.23;;;28.90;95.20;;;;;;5063463;28;20103;-30
2022/09/04 14:03:47;;;;;;;3.88;1.60;;;28.90;95.40;;;;;;5058822;28;20460;-36
2022/09/04 14:06:15;;;;;;;1.80;1.70;;;29.00;95.30;;;;;;5062861;28;20070;-34
2022/09/04 14:08:43;;;;;;;2.75;2.08;;;29.10;95.40;;;;;;5060111;28;20111;-35
2022/09/04 14:11:21;;;;;;;1.48;1.40;;;29.10;95.20;;;;;;5060375;28;20823;-35
2022/09/04 14:14:11;;;;;;;7.13;1.88;;;29.00;95.20;;;;;;5062147;28;20021;-31
2022/09/04 14:16:40;;;;;;;1.55;1.45;;;29.10;95.00;;;;;;5059881;28;20016;-32
2022/09/04 14:19:34;;;;;;;2.65;1.80;;;29.30;95.00;;;;;;5062137;28;20083;-31
2022/09/04 14:22:01;;;;;;;2.28;1.50;;;29.50;94.50;;;;;;5061528;28;20025;-31
2022/09/04 14:24:39;;;;;;;2.10;1.98;;;29.50;94.20;;;;;;5059321;28;20098;-34